Time;durP1;ratioP1;P1;durP2;ratioP2;P2;SDS_P1;SDS_P2;PMS_P1;PMS_P2;Temp;Humidity;BMP_temperature;BMP_pressure;BME280_temperature;BME280_humidity;BME280_pressure;Samples;Min_cycle;Max_cycle;Signal;HPM_P1;HPM_P2
2021/04/12 04:02:37;;;;;;;8.83;7.90;;;3.70;99.90;;;;;;5348629;23;20546;-65
2021/04/12 04:05:35;;;;;;;9.37;8.53;;;3.80;99.90;;;;;;4995876;28;20445;-65
2021/04/12 04:08:22;;;;;;;9.77;8.77;;;3.80;99.90;;;;;;4995825;28;20438;-65
2021/04/12 04:11:21;;;;;;;9.77;8.77;;;3.80;99.90;;;;;;4995542;28;20492;-65
2021/04/12 04:14:18;;;;;;;8.43;7.63;;;3.80;99.90;;;;;;4995291;28;20461;-65
2021/04/12 04:17:07;;;;;;;10.87;9.43;;;3.80;99.90;;;;;;4985102;28;20450;-66
2021/04/12 04:19:53;;;;;;;10.60;9.27;;;3.80;99.90;;;;;;4995201;28;20901;-64
2021/04/12 04:22:53;;;;;;;10.97;9.87;;;3.90;99.90;;;;;;4995249;28;20477;-65
2021/04/12 04:25:52;;;;;;;11.57;10.37;;;3.90;99.90;;;;;;4995000;28;20944;-63
2021/04/12 04:28:35;;;;;;;10.63;9.53;;;4.00;99.90;;;;;;4970713;28;20504;-66
2021/04/12 04:31:28;;;;;;;10.70;9.70;;;4.00;99.90;;;;;;4995139;28;20532;-65
2021/04/12 04:34:14;;;;;;;12.57;11.00;;;4.00;99.90;;;;;;4995310;28;20462;-64
2021/04/12 04:37:01;;;;;;;12.47;11.17;;;3.90;99.90;;;;;;4994973;28;20438;-65
2021/04/12 04:39:48;;;;;;;14.63;10.63;;;3.90;99.90;;;;;;4994949;28;20484;-64
2021/04/12 04:42:41;;;;;;;12.53;11.33;;;4.00;99.90;;;;;;4994954;28;20480;-65
2021/04/12 04:45:15;;;;;;;15.20;11.87;;;4.00;99.90;;;;;;4994938;28;20438;-64
2021/04/12 04:48:01;;;;;;;13.67;12.23;;;4.10;99.90;;;;;;4994988;28;20444;-65
2021/04/12 04:51:00;;;;;;;12.90;11.60;;;4.00;99.90;;;;;;4994883;28;20442;-66
2021/04/12 04:54:18;;;;;;;12.20;11.00;;;4.10;99.90;;;;;;4969436;28;20489;-65
2021/04/12 04:56:59;;;;;;;12.60;11.30;;;4.20;99.90;;;;;;4959425;28;20462;-65
2021/04/12 04:59:35;;;;;;;12.47;11.27;;;4.20;99.90;;;;;;4994537;28;20442;-65
2021/04/12 05:02:31;;;;;;;12.90;11.37;;;4.20;99.90;;;;;;4993808;28;20512;-65
2021/04/12 05:05:23;;;;;;;12.63;10.77;;;4.20;99.90;;;;;;4994313;28;20458;-65
2021/04/12 05:08:19;;;;;;;13.47;11.27;;;4.20;99.90;;;;;;4993918;28;20912;-65
2021/04/12 05:11:07;;;;;;;11.33;10.23;;;4.10;99.90;;;;;;4994293;28;20485;-65
2021/04/12 05:13:48;;;;;;;10.73;9.63;;;4.20;99.90;;;;;;4994290;28;20462;-66
2021/04/12 05:16:33;;;;;;;9.87;9.00;;;4.30;99.90;;;;;;4994269;28;20442;-65
2021/04/12 05:19:42;;;;;;;10.73;9.57;;;4.30;99.90;;;;;;4994298;28;20442;-65
2021/04/12 05:22:56;;;;;;;10.30;9.30;;;4.20;99.90;;;;;;4993732;28;20465;-65
2021/04/12 05:25:44;;;;;;;10.63;9.53;;;4.10;99.90;;;;;;4922065;29;20465;-65
2021/04/12 05:28:24;;;;;;;10.13;9.10;;;3.90;99.90;;;;;;4933934;29;20467;-66
2021/04/12 05:31:10;;;;;;;10.97;9.93;;;3.80;99.90;;;;;;4980728;28;20477;-67
2021/04/12 05:33:48;;;;;;;10.70;9.60;;;3.80;99.90;;;;;;4993728;28;20465;-66
2021/04/12 05:36:31;;;;;;;13.00;11.70;;;3.70;99.90;;;;;;4994071;28;20821;-66
2021/04/12 05:39:17;;;;;;;11.50;10.30;;;3.80;99.90;;;;;;4993934;28;20820;-66
2021/04/12 05:41:56;;;;;;;12.63;11.37;;;3.80;99.90;;;;;;4993624;28;20478;-66
2021/04/12 05:44:52;;;;;;;13.20;12.00;;;3.90;99.90;;;;;;4994027;28;20438;-66
2021/04/12 05:47:30;;;;;;;12.67;11.57;;;4.00;99.90;;;;;;4968579;28;20453;-66
2021/04/12 05:50:26;;;;;;;13.50;12.20;;;4.00;99.90;;;;;;4993968;28;20784;-66
2021/04/12 05:53:29;;;;;;;13.30;11.90;;;3.90;99.90;;;;;;4993991;28;20469;-66
2021/04/12 05:56:23;;;;;;;14.53;12.00;;;4.00;99.90;;;;;;4997660;28;20438;-67
2021/04/12 05:59:08;;;;;;;15.80;14.20;;;4.10;99.90;;;;;;4997495;28;20446;-66
2021/04/12 06:02:13;;;;;;;17.23;13.40;;;4.10;99.90;;;;;;4997363;28;20477;-66
2021/04/12 06:04:50;;;;;;;17.17;15.37;;;4.20;99.90;;;;;;4997762;28;20779;-66
2021/04/12 06:07:52;;;;;;;17.47;15.57;;;4.10;99.90;;;;;;4997686;28;20434;-66
2021/04/12 06:10:50;;;;;;;19.80;16.40;;;4.10;99.90;;;;;;4982280;28;20453;-66
2021/04/12 06:13:47;;;;;;;18.53;15.90;;;4.30;99.90;;;;;;4998336;28;20497;-66
2021/04/12 06:16:39;;;;;;;18.90;15.63;;;4.30;99.90;;;;;;4997869;28;20434;-66
2021/04/12 06:19:51;;;;;;;16.53;14.83;;;4.40;99.90;;;;;;4997194;28;20449;-66
2021/04/12 06:22:34;;;;;;;14.07;12.57;;;4.60;99.90;;;;;;4997280;28;20477;-66
2021/04/12 06:25:37;;;;;;;14.33;11.93;;;4.60;99.90;;;;;;4997387;28;20462;-65
2021/04/12 06:28:36;;;;;;;14.10;12.10;;;4.50;99.90;;;;;;4994764;28;20453;-65
2021/04/12 06:31:23;;;;;;;14.37;12.90;;;4.50;99.90;;;;;;4997156;28;20524;-66
2021/04/12 06:34:03;;;;;;;12.90;11.60;;;4.60;99.90;;;;;;4997061;28;20596;-66
2021/04/12 06:36:47;;;;;;;15.27;12.23;;;4.70;99.90;;;;;;4997224;28;20473;-66
2021/04/12 06:40:09;;;;;;;12.70;11.40;;;4.70;99.90;;;;;;4997106;28;20529;-66
2021/04/12 06:43:17;;;;;;;13.03;11.63;;;4.90;99.90;;;;;;4961864;28;20844;-66
2021/04/12 06:46:23;;;;;;;13.50;11.73;;;4.80;99.90;;;;;;4996965;28;20449;-66
2021/04/12 06:49:20;;;;;;;14.00;12.53;;;5.00;99.90;;;;;;4997560;28;20749;-66
2021/04/12 06:52:32;;;;;;;13.43;12.13;;;5.10;99.90;;;;;;4996730;28;20543;-65
2021/04/12 06:55:16;;;;;;;12.80;11.50;;;5.20;99.90;;;;;;4996394;28;20450;-65
2021/04/12 06:58:28;;;;;;;12.37;11.13;;;5.30;99.90;;;;;;4996723;28;20434;-65
2021/04/12 07:01:40;;;;;;;13.43;11.80;;;5.20;99.90;;;;;;4996521;28;20532;-65
2021/04/12 07:04:31;;;;;;;11.53;10.37;;;5.20;99.90;;;;;;4996526;28;20512;-65
2021/04/12 07:07:42;;;;;;;13.00;11.70;;;5.10;99.90;;;;;;4995953;28;20438;-65
2021/04/12 07:10:21;;;;;;;12.80;11.50;;;5.00;99.90;;;;;;4996570;28;20442;-65
2021/04/12 07:13:13;;;;;;;15.23;13.63;;;5.00;99.90;;;;;;4996474;28;20465;-65
2021/04/12 07:16:04;;;;;;;15.17;13.00;;;5.00;99.90;;;;;;4996469;28;20469;-66
2021/04/12 07:19:05;;;;;;;16.13;14.07;;;5.00;99.90;;;;;;4996446;28;20441;-66
2021/04/12 07:21:59;;;;;;;19.33;14.27;;;5.10;99.90;;;;;;4996421;28;20474;-65
2021/04/12 07:24:47;;;;;;;16.00;14.30;;;5.10;99.90;;;;;;4996212;28;20450;-65
2021/04/12 07:27:47;;;;;;;20.03;16.33;;;5.10;99.90;;;;;;4996337;28;20465;-66
2021/04/12 07:30:41;;;;;;;20.00;16.83;;;5.20;99.90;;;;;;4996182;28;20452;-66
2021/04/12 07:33:49;;;;;;;17.83;15.90;;;5.20;99.90;;;;;;4996047;28;20535;-65
2021/04/12 07:36:43;;;;;;;18.50;16.20;;;5.10;99.90;;;;;;4996019;28;20469;-65
2021/04/12 07:40:07;;;;;;;19.73;16.83;;;5.10;99.90;;;;;;4996322;28;20434;-65
2021/04/12 07:43:18;;;;;;;18.73;16.73;;;5.20;99.90;;;;;;4995931;28;20984;-65
2021/04/12 07:46:19;;;;;;;22.97;16.33;;;5.10;99.90;;;;;;4995940;28;20525;-65
2021/04/12 07:49:19;;;;;;;19.70;16.57;;;5.10;99.90;;;;;;4996095;28;20457;-65
2021/04/12 07:52:19;;;;;;;19.90;17.57;;;5.20;99.90;;;;;;4995861;28;20474;-65
2021/04/12 07:55:18;;;;;;;17.57;15.63;;;5.30;99.90;;;;;;4995848;28;20481;-63
2021/04/12 07:58:11;;;;;;;17.57;15.77;;;5.30;99.90;;;;;;4995997;28;20442;-65
2021/04/12 08:01:13;;;;;;;17.83;15.93;;;5.20;99.90;;;;;;4995587;28;20489;-64
2021/04/12 08:04:05;;;;;;;18.30;16.50;;;5.30;99.90;;;;;;4995549;28;20445;-65
2021/04/12 08:07:32;;;;;;;17.77;15.60;;;5.40;99.90;;;;;;4995539;28;20484;-64
2021/04/12 08:10:49;;;;;;;19.13;16.87;;;5.30;99.90;;;;;;4995538;28;20940;-65
2021/04/12 08:13:51;;;;;;;20.23;16.70;;;5.40;99.90;;;;;;4995874;28;20470;-65
2021/04/12 08:17:15;;;;;;;19.60;17.50;;;5.30;99.90;;;;;;4995290;28;20841;-65
2021/04/12 08:20:02;;;;;;;17.13;15.30;;;5.50;99.90;;;;;;4995053;28;20493;-64
2021/04/12 08:22:59;;;;;;;18.10;16.27;;;5.70;99.90;;;;;;4995093;28;20988;-64
2021/04/12 08:26:04;;;;;;;18.73;16.83;;;5.80;99.90;;;;;;4994883;28;20800;-64
2021/04/12 08:29:09;;;;;;;19.47;17.47;;;6.00;99.90;;;;;;4994720;28;20908;-64
2021/04/12 08:32:18;;;;;;;18.33;16.67;;;6.10;99.90;;;;;;4994691;28;20480;-65
2021/04/12 08:35:31;;;;;;;18.10;15.20;;;6.10;99.90;;;;;;4994605;28;20473;-65
2021/04/12 08:38:22;;;;;;;18.27;15.73;;;6.20;99.90;;;;;;4994915;28;20455;-65
2021/04/12 08:41:42;;;;;;;17.10;15.40;;;6.30;99.90;;;;;;4995029;28;20809;-65
2021/04/12 08:44:29;;;;;;;15.90;14.27;;;6.30;99.90;;;;;;4934731;29;20453;-65
2021/04/12 08:47:33;;;;;;;15.90;14.30;;;6.40;99.90;;;;;;4994668;28;20512;-65
2021/04/12 08:50:25;;;;;;;19.63;15.90;;;6.40;99.90;;;;;;4994886;28;20469;-65
2021/04/12 08:53:23;;;;;;;16.30;14.20;;;6.40;99.90;;;;;;4994513;28;20466;-65
2021/04/12 08:56:28;;;;;;;16.27;14.70;;;6.50;99.90;;;;;;5010127;28;20449;-66
2021/04/12 08:59:31;;;;;;;13.80;12.37;;;6.60;99.90;;;;;;4991279;28;20468;-65
2021/04/12 09:02:23;;;;;;;14.87;13.50;;;6.40;99.90;;;;;;4986397;28;20480;-65
2021/04/12 09:05:32;;;;;;;14.60;12.80;;;6.50;99.90;;;;;;5000760;28;20824;-66
2021/04/12 09:08:32;;;;;;;16.00;14.17;;;6.50;99.90;;;;;;4994758;28;20496;-66
2021/04/12 09:11:17;;;;;;;14.10;12.60;;;6.50;99.90;;;;;;4994448;28;20464;-66
2021/04/12 09:14:25;;;;;;;14.43;12.97;;;6.30;99.90;;;;;;4994249;28;20458;-66
2021/04/12 09:17:18;;;;;;;14.47;13.07;;;6.20;99.90;;;;;;4995202;28;20438;-64
2021/04/12 09:20:07;;;;;;;15.93;14.30;;;6.30;99.90;;;;;;4992850;28;20473;-66
2021/04/12 09:23:00;;;;;;;13.83;12.30;;;6.40;99.90;;;;;;4994285;28;20481;-66
2021/04/12 09:26:08;;;;;;;13.50;12.20;;;6.50;99.90;;;;;;4994269;28;20789;-64
2021/04/12 09:28:56;;;;;;;13.47;12.07;;;6.60;99.90;;;;;;4994894;28;20444;-66
2021/04/12 09:32:05;;;;;;;12.90;11.70;;;6.80;99.90;;;;;;4994267;28;20992;-65
2021/04/12 09:35:03;;;;;;;11.87;10.73;;;7.00;99.90;;;;;;4965637;28;20481;-64
2021/04/12 09:38:00;;;;;;;11.07;9.90;;;7.10;99.90;;;;;;4993953;28;20441;-66
2021/04/12 09:41:06;;;;;;;11.63;10.60;;;7.40;99.90;;;;;;4994046;28;20450;-65
2021/04/12 09:44:05;;;;;;;13.07;11.70;;;7.80;99.90;;;;;;4994077;28;20438;-66
2021/04/12 09:47:10;;;;;;;10.00;9.20;;;7.70;99.90;;;;;;4989218;28;20453;-66
2021/04/12 09:50:20;;;;;;;10.47;9.57;;;7.80;99.90;;;;;;4993850;28;20942;-66
2021/04/12 09:53:02;;;;;;;10.50;9.60;;;7.60;99.90;;;;;;4993967;28;20577;-66
2021/04/12 09:56:00;;;;;;;10.00;9.13;;;7.70;99.90;;;;;;4994038;28;20442;-66
2021/04/12 09:59:16;;;;;;;10.27;9.30;;;7.80;99.90;;;;;;4994040;28;20478;-66
2021/04/12 10:02:06;;;;;;;9.90;9.10;;;8.10;99.90;;;;;;4993588;28;20480;-67
2021/04/12 10:04:52;;;;;;;9.47;8.57;;;8.40;99.90;;;;;;4993956;28;20438;-65
2021/04/12 10:07:41;;;;;;;8.87;7.50;;;8.50;99.90;;;;;;4994707;28;20437;-66
2021/04/12 10:10:16;;;;;;;8.40;7.70;;;8.30;99.90;;;;;;4961530;28;20446;-66
2021/04/12 10:13:05;;;;;;;9.17;8.03;;;8.00;99.90;;;;;;4993763;28;20488;-65
2021/04/12 10:15:43;;;;;;;10.00;8.57;;;7.90;99.90;;;;;;4993866;28;20514;-65
2021/04/12 10:18:17;;;;;;;8.20;7.50;;;8.00;99.90;;;;;;4993925;28;20444;-66
2021/04/12 10:20:49;;;;;;;8.10;7.30;;;8.10;99.90;;;;;;4993792;28;20469;-65
2021/04/12 10:23:20;;;;;;;7.87;7.17;;;8.20;99.90;;;;;;4993937;28;20438;-65
2021/04/12 10:25:57;;;;;;;7.33;6.20;;;8.50;99.90;;;;;;4993920;28;20484;-65
2021/04/12 10:28:28;;;;;;;8.40;7.50;;;8.50;99.90;;;;;;4993391;28;20909;-65
2021/04/12 10:31:02;;;;;;;7.13;6.53;;;8.60;99.90;;;;;;4993848;28;20527;-66
2021/04/12 10:33:41;;;;;;;7.60;6.87;;;8.60;99.90;;;;;;4993780;28;20462;-66
2021/04/12 10:36:19;;;;;;;7.57;6.87;;;8.60;99.90;;;;;;4994055;28;20442;-66
2021/04/12 10:38:48;;;;;;;7.47;6.53;;;8.70;99.90;;;;;;4993912;28;20461;-67
2021/04/12 10:41:24;;;;;;;5.13;4.80;;;8.70;99.90;;;;;;4997084;28;20481;-66
2021/04/12 10:43:57;;;;;;;5.60;5.20;;;8.80;99.90;;;;;;4997326;28;20434;-66
2021/04/12 10:46:26;;;;;;;6.37;5.87;;;8.90;99.90;;;;;;4997331;28;20442;-66
2021/04/12 10:49:00;;;;;;;6.10;5.70;;;8.90;99.90;;;;;;4996923;28;20484;-66
2021/04/12 10:51:34;;;;;;;6.60;5.40;;;9.00;99.90;;;;;;4997220;28;20473;-64
2021/04/12 10:54:36;;;;;;;6.73;6.13;;;9.10;99.90;;;;;;4996723;28;20462;-66
2021/04/12 10:57:14;;;;;;;7.17;5.80;;;9.10;99.90;;;;;;4996769;28;20445;-67
2021/04/12 10:59:52;;;;;;;6.00;5.53;;;9.00;99.90;;;;;;4996859;28;20456;-65
2021/04/12 11:02:23;;;;;;;5.80;5.20;;;8.80;99.90;;;;;;4996257;28;20473;-65
2021/04/12 11:04:56;;;;;;;5.60;5.20;;;8.90;99.90;;;;;;4996814;28;20434;-65
2021/04/12 11:07:33;;;;;;;5.10;4.60;;;8.90;99.90;;;;;;4996608;28;20925;-65
2021/04/12 11:10:06;;;;;;;4.20;4.00;;;9.40;99.90;;;;;;4996766;28;20437;-65
2021/04/12 11:12:48;;;;;;;4.70;4.13;;;9.60;99.90;;;;;;4996640;28;20470;-65
2021/04/12 11:15:25;;;;;;;4.83;4.40;;;9.80;99.90;;;;;;4996687;28;20472;-65
2021/04/12 11:17:58;;;;;;;5.13;4.77;;;9.90;99.90;;;;;;4996370;28;20437;-65
2021/04/12 11:20:36;;;;;;;6.23;4.30;;;9.90;99.90;;;;;;4996294;28;20434;-67
2021/04/12 11:23:07;;;;;;;4.40;4.10;;;9.80;99.90;;;;;;4996386;28;20430;-67
2021/04/12 11:25:41;;;;;;;4.30;3.90;;;9.70;99.90;;;;;;4998098;28;20816;-67
2021/04/12 11:28:32;;;;;;;4.63;4.23;;;9.50;99.90;;;;;;4996907;28;20434;-66
2021/04/12 11:31:07;;;;;;;5.00;4.60;;;9.20;99.90;;;;;;4996957;28;20474;-67
2021/04/12 11:33:42;;;;;;;5.47;4.97;;;9.20;99.90;;;;;;4997384;28;20461;-66
2021/04/12 11:36:27;;;;;;;5.70;5.20;;;9.20;99.90;;;;;;4998631;28;20799;-66
2021/04/12 11:39:05;;;;;;;5.17;4.73;;;9.10;99.90;;;;;;4998436;28;20453;-66
2021/04/12 11:41:35;;;;;;;5.47;5.03;;;8.90;99.90;;;;;;4998455;28;20877;-66
2021/04/12 11:44:08;;;;;;;8.50;4.07;;;9.20;99.90;;;;;;4997842;28;20913;-66
2021/04/12 11:46:49;;;;;;;4.87;4.57;;;9.60;99.90;;;;;;4998172;28;20454;-66
2021/04/12 11:49:26;;;;;;;4.70;4.30;;;9.70;99.90;;;;;;4998366;28;20438;-67
2021/04/12 11:51:59;;;;;;;4.97;4.57;;;9.60;99.90;;;;;;4997491;28;21009;-67
2021/04/12 11:54:35;;;;;;;4.87;4.47;;;9.90;99.90;;;;;;4998124;28;20462;-65
2021/04/12 11:57:15;;;;;;;4.00;3.70;;;10.10;99.50;;;;;;4997339;28;20488;-66
2021/04/12 11:59:48;;;;;;;5.40;4.50;;;10.30;99.60;;;;;;4995981;28;20445;-66
2021/04/12 12:02:28;;;;;;;4.30;3.90;;;10.40;99.90;;;;;;4995425;28;20493;-66
2021/04/12 12:04:59;;;;;;;6.13;3.67;;;10.40;98.30;;;;;;4995703;28;20457;-65
2021/04/12 12:07:34;;;;;;;5.30;4.03;;;10.40;94.30;;;;;;4995815;28;20449;-67
2021/04/12 12:10:25;;;;;;;5.10;3.57;;;9.80;94.60;;;;;;4995704;28;20445;-65
2021/04/12 12:12:57;;;;;;;3.87;3.50;;;9.80;96.10;;;;;;4995437;28;20460;-65
2021/04/12 12:15:34;;;;;;;3.60;3.30;;;9.80;97.50;;;;;;4996736;28;20437;-65
2021/04/12 12:18:05;;;;;;;5.63;4.63;;;9.80;97.20;;;;;;4999503;28;20448;-65
2021/04/12 12:20:43;;;;;;;5.27;3.93;;;9.70;96.00;;;;;;4998164;28;20464;-66
2021/04/12 12:23:38;;;;;;;5.37;4.13;;;9.60;97.20;;;;;;4998453;28;20434;-65
2021/04/12 12:26:08;;;;;;;5.07;3.77;;;9.50;97.40;;;;;;4999111;28;20438;-66
2021/04/12 12:28:42;;;;;;;3.83;3.50;;;9.60;98.50;;;;;;4997621;28;20449;-66
2021/04/12 12:34:05;;;;;;;4.53;4.20;;;9.30;98.50;;;;;;4997605;28;20457;-67
2021/04/12 12:36:40;;;;;;;5.50;3.90;;;9.10;95.60;;;;;;4998244;28;20912;-67
2021/04/12 12:39:12;;;;;;;3.60;2.93;;;9.10;95.90;;;;;;4997775;28;20912;-65
2021/04/12 12:41:44;;;;;;;3.00;2.80;;;9.10;96.10;;;;;;4995743;28;20524;-66
2021/04/12 12:44:13;;;;;;;3.43;3.07;;;9.10;92.40;;;;;;4995080;28;20928;-65
2021/04/12 12:46:42;;;;;;;2.60;2.40;;;9.20;93.50;;;;;;4995195;28;20975;-67
2021/04/12 12:49:11;;;;;;;3.13;2.80;;;9.10;92.00;;;;;;4995202;28;20465;-66
2021/04/12 12:51:47;;;;;;;2.73;2.47;;;9.20;95.20;;;;;;4994970;28;20473;-65
2021/04/12 12:54:21;;;;;;;2.60;2.37;;;9.30;94.30;;;;;;4994836;28;20468;-66
2021/04/12 12:56:49;;;;;;;2.17;2.07;;;9.30;92.70;;;;;;4994955;28;20481;-65
2021/04/12 12:59:24;;;;;;;5.17;2.57;;;9.20;91.80;;;;;;4995541;28;20453;-66
2021/04/12 13:01:50;;;;;;;2.77;2.57;;;9.50;94.60;;;;;;4994444;28;20481;-65
2021/04/12 13:04:19;;;;;;;2.60;2.40;;;9.60;93.70;;;;;;4993688;28;20457;-66
2021/04/12 13:06:49;;;;;;;2.70;2.60;;;9.90;95.80;;;;;;4994591;28;20453;-66
2021/04/12 13:09:26;;;;;;;2.90;2.70;;;10.30;94.90;;;;;;4994353;28;20453;-66
2021/04/12 13:11:55;;;;;;;3.07;2.23;;;10.40;93.40;;;;;;4994397;28;20500;-66
2021/04/12 13:14:32;;;;;;;2.67;2.47;;;10.50;90.30;;;;;;4994664;28;20481;-67
2021/04/12 13:17:02;;;;;;;2.70;2.50;;;10.40;91.40;;;;;;4994540;28;20438;-67
2021/04/12 13:19:44;;;;;;;2.73;2.53;;;10.50;90.00;;;;;;4994599;28;20460;-66
2021/04/12 13:22:10;;;;;;;2.60;2.40;;;10.40;90.10;;;;;;4994408;28;20821;-66
2021/04/12 13:24:37;;;;;;;2.27;2.17;;;10.50;92.10;;;;;;4994804;28;20453;-67
2021/04/12 13:27:10;;;;;;;2.60;2.40;;;10.60;91.80;;;;;;4994459;28;20454;-67
2021/04/12 13:29:47;;;;;;;3.47;3.17;;;10.80;91.50;;;;;;4994040;28;20446;-66
2021/04/12 13:32:18;;;;;;;2.40;2.20;;;11.10;89.10;;;;;;4994222;28;20983;-67
2021/04/12 13:34:48;;;;;;;2.50;2.40;;;11.50;91.10;;;;;;4994204;28;20935;-66
2021/04/12 13:37:18;;;;;;;2.10;2.00;;;11.50;82.20;;;;;;4994665;28;20457;-67
2021/04/12 13:39:48;;;;;;;2.33;2.13;;;11.60;81.00;;;;;;4995013;28;20442;-66
2021/04/12 13:42:21;;;;;;;3.03;2.70;;;11.60;77.60;;;;;;4994086;28;21011;-66
2021/04/12 13:44:53;;;;;;;2.70;2.50;;;11.10;78.20;;;;;;4994266;28;20493;-66
2021/04/12 13:47:26;;;;;;;2.10;2.00;;;10.70;79.80;;;;;;4994539;28;20445;-66
2021/04/12 13:49:59;;;;;;;2.17;2.00;;;10.50;77.10;;;;;;4994140;28;20441;-66
2021/04/12 13:52:29;;;;;;;1.80;1.80;;;10.60;79.50;;;;;;4994059;28;20481;-66
2021/04/12 13:55:00;;;;;;;3.10;2.80;;;10.50;76.80;;;;;;4994133;28;20540;-66
2021/04/12 13:57:33;;;;;;;2.17;1.77;;;10.40;75.90;;;;;;4994348;28;20446;-67
2021/04/12 14:00:09;;;;;;;2.20;2.10;;;10.40;79.40;;;;;;4994275;28;20438;-66
2021/04/12 14:02:40;;;;;;;4.40;2.20;;;10.40;84.70;;;;;;4993714;28;20853;-66
2021/04/12 14:05:12;;;;;;;2.77;2.60;;;10.30;82.60;;;;;;4994070;28;20438;-66
2021/04/12 14:07:42;;;;;;;2.30;2.10;;;10.40;83.40;;;;;;4994194;28;20438;-66
2021/04/12 14:10:14;;;;;;;3.63;2.80;;;10.40;82.70;;;;;;4994236;28;20449;-66
2021/04/12 14:12:59;;;;;;;2.00;1.63;;;10.40;85.40;;;;;;4994067;28;20445;-66
2021/04/12 14:15:45;;;;;;;2.53;2.40;;;10.10;79.90;;;;;;4996214;28;20437;-66
2021/04/12 14:18:20;;;;;;;2.80;2.60;;;10.20;80.80;;;;;;4997632;28;20488;-66
2021/04/12 14:20:48;;;;;;;2.90;2.60;;;10.10;82.70;;;;;;4997424;28;20469;-67
2021/04/12 14:23:19;;;;;;;3.30;2.30;;;9.90;83.50;;;;;;4997568;28;20453;-66
2021/04/12 14:25:56;;;;;;;3.90;2.50;;;10.20;86.70;;;;;;4997445;28;20783;-67
2021/04/12 14:28:25;;;;;;;2.30;2.20;;;10.40;86.70;;;;;;4997496;28;20434;-67
2021/04/12 14:30:55;;;;;;;2.47;2.27;;;10.40;85.20;;;;;;4997430;28;20473;-66
2021/04/12 14:33:24;;;;;;;3.17;2.77;;;10.60;86.30;;;;;;4997350;28;20500;-66
2021/04/12 14:35:57;;;;;;;2.97;2.60;;;10.40;82.10;;;;;;4997353;28;20457;-66
2021/04/12 14:38:26;;;;;;;2.50;2.30;;;10.30;80.30;;;;;;4997353;28;20469;-65
2021/04/12 14:40:57;;;;;;;2.60;2.40;;;10.40;84.10;;;;;;4997340;28;20485;-66
2021/04/12 14:43:27;;;;;;;2.80;2.40;;;10.40;83.00;;;;;;4997397;28;20446;-67
2021/04/12 14:46:04;;;;;;;2.53;2.33;;;10.50;80.80;;;;;;4997356;28;20449;-66
2021/04/12 14:48:35;;;;;;;2.40;2.30;;;10.60;84.20;;;;;;4997280;28;20478;-67
2021/04/12 14:51:06;;;;;;;3.60;2.30;;;10.30;87.00;;;;;;4997025;28;20477;-66
2021/04/12 14:53:40;;;;;;;3.07;2.80;;;10.70;91.40;;;;;;4997006;28;20968;-66
2021/04/12 14:56:12;;;;;;;2.70;2.60;;;11.00;82.60;;;;;;4996741;28;20910;-65
2021/04/12 14:58:41;;;;;;;2.40;2.30;;;11.30;81.20;;;;;;4996690;28;20453;-67
2021/04/12 15:01:12;;;;;;;2.20;2.10;;;11.60;82.80;;;;;;4996411;28;20497;-66
2021/04/12 15:03:49;;;;;;;3.20;2.33;;;11.80;81.00;;;;;;4996744;28;20434;-66
2021/04/12 15:06:21;;;;;;;3.40;2.57;;;11.30;74.90;;;;;;4996574;28;20530;-65
2021/04/12 15:08:54;;;;;;;2.40;2.30;;;11.20;82.30;;;;;;4996572;28;20438;-66
2021/04/12 15:11:28;;;;;;;4.33;2.27;;;11.10;75.20;;;;;;4996470;28;20532;-64
2021/04/12 15:14:00;;;;;;;2.63;2.53;;;11.00;95.40;;;;;;4996444;28;20477;-65
2021/04/12 15:16:34;;;;;;;2.20;2.10;;;10.90;86.10;;;;;;4996480;28;20508;-66
2021/04/12 15:19:05;;;;;;;3.80;1.90;;;10.70;78.70;;;;;;4996532;28;20500;-67
2021/04/12 15:21:36;;;;;;;2.73;2.23;;;10.50;81.20;;;;;;4996580;28;20473;-66
2021/04/12 15:24:10;;;;;;;2.47;2.20;;;10.40;78.70;;;;;;4996572;28;20438;-66
2021/04/12 15:26:44;;;;;;;4.07;2.03;;;10.20;81.30;;;;;;4995423;28;20442;-66
2021/04/12 15:29:22;;;;;;;3.13;2.57;;;10.20;82.20;;;;;;4996274;28;20451;-66
2021/04/12 15:31:52;;;;;;;2.07;1.97;;;10.00;79.40;;;;;;4996212;28;20477;-66
2021/04/12 15:34:39;;;;;;;4.03;2.50;;;10.00;81.90;;;;;;4996093;28;20474;-66
2021/04/12 15:37:21;;;;;;;2.50;2.40;;;9.90;84.90;;;;;;4996208;28;20808;-67
2021/04/12 15:39:48;;;;;;;2.93;2.60;;;10.00;86.60;;;;;;4996490;28;20446;-66
2021/04/12 15:42:19;;;;;;;3.43;2.40;;;10.00;87.10;;;;;;4995938;28;20832;-66
2021/04/12 15:44:49;;;;;;;2.60;2.40;;;10.00;83.10;;;;;;4996072;28;20445;-66
2021/04/12 15:47:20;;;;;;;3.90;2.67;;;10.10;91.00;;;;;;4996081;28;20449;-66
2021/04/12 15:49:50;;;;;;;2.40;2.10;;;10.30;89.80;;;;;;4996231;28;20449;-67
2021/04/12 15:52:19;;;;;;;2.40;2.30;;;10.50;87.30;;;;;;4995946;28;20569;-67
2021/04/12 15:55:00;;;;;;;2.40;2.20;;;10.50;84.00;;;;;;4995833;28;20826;-66
2021/04/12 15:57:30;;;;;;;2.90;2.30;;;10.60;83.90;;;;;;4996438;28;20446;-66
2021/04/12 15:59:59;;;;;;;1.80;1.70;;;10.90;81.20;;;;;;4995844;28;20508;-66
2021/04/12 16:02:29;;;;;;;2.10;2.00;;;11.00;81.90;;;;;;4995349;28;20485;-66
2021/04/12 16:05:07;;;;;;;2.13;2.00;;;11.10;78.70;;;;;;4995702;28;20454;-66
2021/04/12 16:07:41;;;;;;;2.43;2.20;;;11.20;79.60;;;;;;4995710;28;20434;-67
2021/04/12 16:10:12;;;;;;;4.90;2.40;;;11.30;79.70;;;;;;4995585;28;20448;-66
2021/04/12 16:12:50;;;;;;;2.60;2.30;;;11.00;85.40;;;;;;4995144;28;20477;-66
2021/04/12 16:15:23;;;;;;;1.97;1.87;;;11.00;79.70;;;;;;4995296;28;20465;-67
2021/04/12 16:18:00;;;;;;;2.53;2.33;;;11.30;80.80;;;;;;4995550;28;20438;-67
2021/04/12 16:20:31;;;;;;;1.67;1.60;;;11.10;77.70;;;;;;4995431;28;20446;-67
2021/04/12 16:23:04;;;;;;;2.30;2.20;;;10.70;78.10;;;;;;4995356;28;20445;-67
2021/04/12 16:25:33;;;;;;;2.00;1.90;;;10.70;81.20;;;;;;4994929;28;20901;-67
2021/04/12 16:28:08;;;;;;;1.83;1.73;;;10.50;78.90;;;;;;4995159;28;20453;-67
2021/04/12 16:30:41;;;;;;;2.10;1.90;;;10.40;81.40;;;;;;4994715;28;20913;-67
2021/04/12 16:33:13;;;;;;;4.77;2.10;;;10.10;82.90;;;;;;4994985;28;20453;-67
2021/04/12 16:35:41;;;;;;;2.23;2.03;;;10.00;83.90;;;;;;4995094;28;20430;-67
2021/04/12 16:38:17;;;;;;;2.00;1.90;;;10.00;84.20;;;;;;4994742;28;20450;-67
2021/04/12 16:40:49;;;;;;;2.27;1.90;;;10.00;85.70;;;;;;4994879;28;20469;-67
2021/04/12 16:43:21;;;;;;;1.90;1.80;;;9.90;86.70;;;;;;4995697;28;20442;-66
2021/04/12 16:45:54;;;;;;;2.13;1.60;;;9.80;84.40;;;;;;4995534;28;20438;-67
2021/04/12 16:48:23;;;;;;;2.00;1.87;;;9.70;86.00;;;;;;4995441;28;20438;-66
2021/04/12 16:50:53;;;;;;;2.33;1.90;;;9.60;84.80;;;;;;4994948;28;21010;-67
2021/04/12 16:53:24;;;;;;;2.40;1.63;;;9.60;86.50;;;;;;4996423;28;20493;-66
2021/04/12 16:55:53;;;;;;;1.70;1.60;;;9.50;86.30;;;;;;4995215;28;20805;-67
2021/04/12 16:58:26;;;;;;;2.50;1.80;;;9.50;83.00;;;;;;4995499;28;20461;-67
2021/04/12 17:00:58;;;;;;;1.80;1.70;;;9.50;83.90;;;;;;4995292;28;20572;-67
2021/04/12 17:03:35;;;;;;;1.80;1.77;;;9.50;83.40;;;;;;4995577;28;20454;-67
2021/04/12 17:06:11;;;;;;;2.50;2.00;;;9.40;87.50;;;;;;4995326;28;20446;-67
2021/04/12 17:08:44;;;;;;;2.10;2.00;;;9.20;88.80;;;;;;4995389;28;20449;-68
2021/04/12 17:11:14;;;;;;;1.50;1.40;;;9.10;89.30;;;;;;4995081;28;20842;-69
2021/04/12 17:13:45;;;;;;;4.37;3.97;;;9.10;89.90;;;;;;4994837;28;20979;-69
2021/04/12 17:16:19;;;;;;;3.17;2.87;;;9.10;90.90;;;;;;4995175;28;20438;-69
2021/04/12 17:18:48;;;;;;;2.00;1.90;;;9.00;90.40;;;;;;4994691;28;20437;-69
2021/04/12 17:21:23;;;;;;;1.80;1.70;;;8.90;91.00;;;;;;4995317;28;20470;-69
2021/04/12 17:23:52;;;;;;;2.00;1.80;;;8.90;91.80;;;;;;4995122;28;20487;-70
2021/04/12 17:26:27;;;;;;;1.70;1.60;;;8.80;92.50;;;;;;4994873;28;20972;-68
2021/04/12 17:29:01;;;;;;;2.00;1.90;;;8.80;92.60;;;;;;4995120;28;20532;-69
2021/04/12 17:31:32;;;;;;;2.00;1.90;;;8.60;92.90;;;;;;4994507;28;20999;-70
2021/04/12 17:34:02;;;;;;;1.90;1.80;;;8.50;93.10;;;;;;4994727;28;20539;-69
2021/04/12 17:36:34;;;;;;;1.93;1.83;;;8.40;93.30;;;;;;4994810;28;20450;-69
2021/04/12 17:39:06;;;;;;;3.47;2.23;;;8.20;93.50;;;;;;4994583;28;20441;-70
2021/04/12 17:41:42;;;;;;;2.77;2.00;;;8.20;94.80;;;;;;4994687;28;20478;-69
2021/04/12 17:44:16;;;;;;;3.33;2.27;;;8.20;94.40;;;;;;4994622;28;20445;-69
2021/04/12 17:46:52;;;;;;;3.87;1.83;;;8.10;94.70;;;;;;4994837;28;20441;-70
2021/04/12 17:49:24;;;;;;;2.00;1.90;;;8.10;94.00;;;;;;4994699;28;20937;-69
2021/04/12 17:51:53;;;;;;;3.33;2.33;;;8.00;94.50;;;;;;4998583;28;20477;-69
2021/04/12 17:54:24;;;;;;;2.60;1.60;;;7.90;94.60;;;;;;4998128;28;21003;-69
2021/04/12 17:56:53;;;;;;;1.97;1.87;;;7.80;94.80;;;;;;4998498;28;20489;-70
2021/04/12 17:59:30;;;;;;;2.20;2.10;;;7.70;94.70;;;;;;4998495;28;20948;-70
2021/04/12 18:01:59;;;;;;;3.03;2.20;;;7.70;94.90;;;;;;4997920;28;20994;-68
2021/04/12 18:04:28;;;;;;;4.50;2.30;;;7.60;94.80;;;;;;4998303;28;20456;-70
2021/04/12 18:06:59;;;;;;;2.50;2.20;;;7.50;95.10;;;;;;4998296;28;20863;-69
2021/04/12 18:09:30;;;;;;;2.97;2.00;;;7.50;95.60;;;;;;4998254;28;20525;-68
2021/04/12 18:12:03;;;;;;;2.03;1.93;;;7.50;96.60;;;;;;4998106;28;20481;-70